sensor_id;sensor_type;location;lat;lon;timestamp;P1;durP1;ratioP1;P2;durP2;ratioP2
76656;SDS011;65576;47.714;9.414;2024-03-02T00:01:53;3.00;;;2.65;;
76656;SDS011;65576;47.714;9.414;2024-03-02T00:04:18;4.72;;;2.75;;
76656;SDS011;65576;47.714;9.414;2024-03-02T00:06:44;4.68;;;2.10;;
76656;SDS011;65576;47.714;9.414;2024-03-02T00:09:09;6.43;;;2.83;;
76656;SDS011;65576;47.714;9.414;2024-03-02T00:11:36;3.20;;;2.63;;
76656;SDS011;65576;47.714;9.414;2024-03-02T00:14:01;6.05;;;3.17;;
76656;SDS011;65576;47.714;9.414;2024-03-02T00:16:30;6.97;;;3.17;;
76656;SDS011;65576;47.714;9.414;2024-03-02T00:18:58;4.82;;;3.10;;
76656;SDS011;65576;47.714;9.414;2024-03-02T00:21:27;6.40;;;3.80;;
76656;SDS011;65576;47.714;9.414;2024-03-02T00:23:52;4.60;;;3.15;;
76656;SDS011;65576;47.714;9.414;2024-03-02T00:26:18;3.40;;;2.88;;
76656;SDS011;65576;47.714;9.414;2024-03-02T00:28:44;2.40;;;2.17;;
76656;SDS011;65576;47.714;9.414;2024-03-02T00:31:13;4.00;;;2.67;;
76656;SDS011;65576;47.714;9.414;2024-03-02T00:33:42;3.22;;;2.58;;
76656;SDS011;65576;47.714;9.414;2024-03-02T00:36:08;2.75;;;2.25;;
76656;SDS011;65576;47.714;9.414;2024-03-02T00:38:35;3.15;;;2.60;;
76656;SDS011;65576;47.714;9.414;2024-03-02T00:41:07;4.10;;;2.70;;
76656;SDS011;65576;47.714;9.414;2024-03-02T00:46:17;3.60;;;3.00;;
76656;SDS011;65576;47.714;9.414;2024-03-02T00:48:48;2.55;;;2.35;;
76656;SDS011;65576;47.714;9.414;2024-03-02T00:51:22;2.13;;;1.98;;
76656;SDS011;65576;47.714;9.414;2024-03-02T00:53:49;2.65;;;1.73;;
76656;SDS011;65576;47.714;9.414;2024-03-02T00:56:15;2.35;;;2.15;;
76656;SDS011;65576;47.714;9.414;2024-03-02T00:58:41;3.97;;;2.17;;
76656;SDS011;65576;47.714;9.414;2024-03-02T01:01:06;4.47;;;2.97;;
76656;SDS011;65576;47.714;9.414;2024-03-02T01:03:32;5.32;;;3.60;;
76656;SDS011;65576;47.714;9.414;2024-03-02T01:05:58;3.13;;;2.83;;
76656;SDS011;65576;47.714;9.414;2024-03-02T01:08:24;5.10;;;3.05;;
76656;SDS011;65576;47.714;9.414;2024-03-02T01:10:49;3.10;;;2.17;;
76656;SDS011;65576;47.714;9.414;2024-03-02T01:13:14;4.75;;;2.42;;
76656;SDS011;65576;47.714;9.414;2024-03-02T01:15:39;4.07;;;3.13;;
76656;SDS011;65576;47.714;9.414;2024-03-02T01:18:05;3.90;;;2.50;;
76656;SDS011;65576;47.714;9.414;2024-03-02T01:20:30;4.22;;;2.92;;
76656;SDS011;65576;47.714;9.414;2024-03-02T01:22:56;3.47;;;2.15;;
76656;SDS011;65576;47.714;9.414;2024-03-02T01:25:21;4.80;;;3.30;;
76656;SDS011;65576;47.714;9.414;2024-03-02T01:27:47;3.03;;;2.58;;
76656;SDS011;65576;47.714;9.414;2024-03-02T01:30:12;4.80;;;2.88;;
76656;SDS011;65576;47.714;9.414;2024-03-02T01:32:38;4.03;;;2.63;;
76656;SDS011;65576;47.714;9.414;2024-03-02T01:35:04;6.78;;;3.45;;
76656;SDS011;65576;47.714;9.414;2024-03-02T01:37:29;5.88;;;3.30;;
76656;SDS011;65576;47.714;9.414;2024-03-02T01:39:55;3.95;;;2.60;;
76656;SDS011;65576;47.714;9.414;2024-03-02T01:42:20;4.63;;;3.25;;
76656;SDS011;65576;47.714;9.414;2024-03-02T01:44:45;3.33;;;2.85;;
76656;SDS011;65576;47.714;9.414;2024-03-02T01:47:11;5.93;;;3.60;;
76656;SDS011;65576;47.714;9.414;2024-03-02T01:49:36;5.05;;;2.85;;
76656;SDS011;65576;47.714;9.414;2024-03-02T01:52:03;6.88;;;3.17;;
76656;SDS011;65576;47.714;9.414;2024-03-02T01:54:29;4.55;;;2.92;;
76656;SDS011;65576;47.714;9.414;2024-03-02T01:56:54;5.85;;;3.50;;
76656;SDS011;65576;47.714;9.414;2024-03-02T01:59:19;6.45;;;4.15;;
76656;SDS011;65576;47.714;9.414;2024-03-02T02:01:45;5.43;;;3.40;;
76656;SDS011;65576;47.714;9.414;2024-03-02T02:04:10;5.60;;;3.47;;
76656;SDS011;65576;47.714;9.414;2024-03-02T02:06:35;5.35;;;4.00;;
76656;SDS011;65576;47.714;9.414;2024-03-02T02:09:01;4.20;;;2.70;;
76656;SDS011;65576;47.714;9.414;2024-03-02T02:11:26;5.50;;;3.67;;
76656;SDS011;65576;47.714;9.414;2024-03-02T02:13:51;5.10;;;3.50;;
76656;SDS011;65576;47.714;9.414;2024-03-02T02:16:17;4.75;;;3.75;;
76656;SDS011;65576;47.714;9.414;2024-03-02T02:18:42;6.03;;;3.95;;
76656;SDS011;65576;47.714;9.414;2024-03-02T02:21:07;7.43;;;3.50;;
76656;SDS011;65576;47.714;9.414;2024-03-02T02:23:32;5.18;;;3.08;;
76656;SDS011;65576;47.714;9.414;2024-03-02T02:25:58;5.57;;;3.47;;
76656;SDS011;65576;47.714;9.414;2024-03-02T02:28:23;4.07;;;2.58;;
76656;SDS011;65576;47.714;9.414;2024-03-02T02:30:49;5.22;;;3.42;;
76656;SDS011;65576;47.714;9.414;2024-03-02T02:33:14;5.68;;;3.45;;
76656;SDS011;65576;47.714;9.414;2024-03-02T02:35:39;4.85;;;3.08;;
76656;SDS011;65576;47.714;9.414;2024-03-02T02:38:05;3.78;;;2.85;;
76656;SDS011;65576;47.714;9.414;2024-03-02T02:40:30;3.17;;;2.88;;
76656;SDS011;65576;47.714;9.414;2024-03-02T02:42:56;3.88;;;2.90;;
76656;SDS011;65576;47.714;9.414;2024-03-02T02:45:21;3.58;;;2.47;;
76656;SDS011;65576;47.714;9.414;2024-03-02T02:47:47;4.82;;;3.28;;
76656;SDS011;65576;47.714;9.414;2024-03-02T02:50:12;6.60;;;2.95;;
76656;SDS011;65576;47.714;9.414;2024-03-02T02:52:38;4.03;;;2.78;;
76656;SDS011;65576;47.714;9.414;2024-03-02T02:55:05;5.03;;;2.75;;
76656;SDS011;65576;47.714;9.414;2024-03-02T02:57:34;5.18;;;2.90;;
76656;SDS011;65576;47.714;9.414;2024-03-02T03:00:04;3.05;;;1.98;;
76656;SDS011;65576;47.714;9.414;2024-03-02T03:02:35;3.97;;;2.90;;
76656;SDS011;65576;47.714;9.414;2024-03-02T03:05:01;5.13;;;2.92;;
76656;SDS011;65576;47.714;9.414;2024-03-02T03:07:26;5.68;;;4.25;;
76656;SDS011;65576;47.714;9.414;2024-03-02T03:09:52;4.85;;;3.33;;
76656;SDS011;65576;47.714;9.414;2024-03-02T03:12:17;4.35;;;3.28;;
76656;SDS011;65576;47.714;9.414;2024-03-02T03:14:42;6.60;;;4.55;;
76656;SDS011;65576;47.714;9.414;2024-03-02T03:17:07;4.95;;;3.25;;
76656;SDS011;65576;47.714;9.414;2024-03-02T03:19:33;2.83;;;1.95;;
76656;SDS011;65576;47.714;9.414;2024-03-02T03:21:58;3.95;;;2.67;;
76656;SDS011;65576;47.714;9.414;2024-03-02T03:24:24;4.03;;;2.95;;
76656;SDS011;65576;47.714;9.414;2024-03-02T03:26:49;4.82;;;3.28;;
76656;SDS011;65576;47.714;9.414;2024-03-02T03:29:14;4.45;;;3.53;;
76656;SDS011;65576;47.714;9.414;2024-03-02T03:31:39;3.53;;;2.58;;
76656;SDS011;65576;47.714;9.414;2024-03-02T03:34:05;3.47;;;2.47;;
76656;SDS011;65576;47.714;9.414;2024-03-02T03:36:30;4.68;;;2.45;;
76656;SDS011;65576;47.714;9.414;2024-03-02T03:38:55;2.92;;;1.80;;
76656;SDS011;65576;47.714;9.414;2024-03-02T03:41:21;5.30;;;3.33;;
76656;SDS011;65576;47.714;9.414;2024-03-02T03:43:46;4.78;;;2.65;;
76656;SDS011;65576;47.714;9.414;2024-03-02T03:46:11;3.50;;;2.05;;
76656;SDS011;65576;47.714;9.414;2024-03-02T03:48:36;2.35;;;2.15;;
76656;SDS011;65576;47.714;9.414;2024-03-02T03:51:02;3.58;;;2.85;;
76656;SDS011;65576;47.714;9.414;2024-03-02T03:53:27;3.28;;;2.92;;
76656;SDS011;65576;47.714;9.414;2024-03-02T03:55:52;7.57;;;3.25;;
76656;SDS011;65576;47.714;9.414;2024-03-02T03:58:18;7.82;;;3.15;;
76656;SDS011;65576;47.714;9.414;2024-03-02T04:00:45;8.45;;;3.13;;
76656;SDS011;65576;47.714;9.414;2024-03-02T04:03:11;4.07;;;2.38;;
76656;SDS011;65576;47.714;9.414;2024-03-02T04:05:36;3.25;;;2.78;;
76656;SDS011;65576;47.714;9.414;2024-03-02T04:08:01;8.00;;;3.42;;
76656;SDS011;65576;47.714;9.414;2024-03-02T04:10:26;4.40;;;2.92;;
76656;SDS011;65576;47.714;9.414;2024-03-02T04:12:52;2.80;;;2.20;;
76656;SDS011;65576;47.714;9.414;2024-03-02T04:15:17;3.90;;;3.28;;
76656;SDS011;65576;47.714;9.414;2024-03-02T04:17:43;6.75;;;2.58;;
76656;SDS011;65576;47.714;9.414;2024-03-02T04:20:09;4.28;;;2.50;;
76656;SDS011;65576;47.714;9.414;2024-03-02T04:22:34;3.58;;;2.72;;
76656;SDS011;65576;47.714;9.414;2024-03-02T04:25:00;4.03;;;3.15;;
76656;SDS011;65576;47.714;9.414;2024-03-02T04:27:26;2.70;;;2.35;;
76656;SDS011;65576;47.714;9.414;2024-03-02T04:29:52;2.95;;;2.45;;
76656;SDS011;65576;47.714;9.414;2024-03-02T04:32:17;4.03;;;2.83;;
76656;SDS011;65576;47.714;9.414;2024-03-02T04:34:44;6.55;;;3.35;;
76656;SDS011;65576;47.714;9.414;2024-03-02T04:37:10;4.38;;;3.35;;
76656;SDS011;65576;47.714;9.414;2024-03-02T04:39:37;7.15;;;3.75;;
76656;SDS011;65576;47.714;9.414;2024-03-02T04:42:02;3.28;;;2.70;;
76656;SDS011;65576;47.714;9.414;2024-03-02T04:44:28;5.05;;;2.63;;
76656;SDS011;65576;47.714;9.414;2024-03-02T04:46:53;6.57;;;3.33;;
76656;SDS011;65576;47.714;9.414;2024-03-02T04:49:18;4.10;;;2.13;;
76656;SDS011;65576;47.714;9.414;2024-03-02T04:51:43;5.80;;;3.70;;
76656;SDS011;65576;47.714;9.414;2024-03-02T04:54:09;4.57;;;3.00;;
76656;SDS011;65576;47.714;9.414;2024-03-02T04:56:34;5.70;;;4.00;;
76656;SDS011;65576;47.714;9.414;2024-03-02T04:59:09;2.75;;;2.38;;
76656;SDS011;65576;47.714;9.414;2024-03-02T05:01:35;5.28;;;3.33;;
76656;SDS011;65576;47.714;9.414;2024-03-02T05:04:00;5.43;;;3.58;;
76656;SDS011;65576;47.714;9.414;2024-03-02T05:06:26;2.72;;;2.45;;
76656;SDS011;65576;47.714;9.414;2024-03-02T05:08:51;5.93;;;3.00;;
76656;SDS011;65576;47.714;9.414;2024-03-02T05:11:16;5.60;;;2.75;;
76656;SDS011;65576;47.714;9.414;2024-03-02T05:14:06;3.75;;;3.00;;
76656;SDS011;65576;47.714;9.414;2024-03-02T05:16:35;3.97;;;2.50;;
76656;SDS011;65576;47.714;9.414;2024-03-02T05:19:01;4.97;;;3.15;;
76656;SDS011;65576;47.714;9.414;2024-03-02T05:21:27;4.82;;;3.90;;
76656;SDS011;65576;47.714;9.414;2024-03-02T05:23:52;6.85;;;3.85;;
76656;SDS011;65576;47.714;9.414;2024-03-02T05:26:17;3.08;;;2.67;;
76656;SDS011;65576;47.714;9.414;2024-03-02T05:28:43;5.43;;;3.70;;
76656;SDS011;65576;47.714;9.414;2024-03-02T05:31:11;9.07;;;3.05;;
76656;SDS011;65576;47.714;9.414;2024-03-02T05:33:39;5.18;;;3.45;;
76656;SDS011;65576;47.714;9.414;2024-03-02T05:36:05;4.88;;;3.50;;
76656;SDS011;65576;47.714;9.414;2024-03-02T05:38:31;6.25;;;3.35;;
76656;SDS011;65576;47.714;9.414;2024-03-02T05:40:56;6.30;;;4.30;;
76656;SDS011;65576;47.714;9.414;2024-03-02T05:43:21;9.23;;;4.80;;
76656;SDS011;65576;47.714;9.414;2024-03-02T05:45:47;9.20;;;4.90;;
76656;SDS011;65576;47.714;9.414;2024-03-02T05:48:12;8.43;;;4.10;;
76656;SDS011;65576;47.714;9.414;2024-03-02T05:50:38;11.45;;;4.32;;
76656;SDS011;65576;47.714;9.414;2024-03-02T05:53:03;5.57;;;3.47;;
76656;SDS011;65576;47.714;9.414;2024-03-02T05:55:28;6.57;;;4.25;;
76656;SDS011;65576;47.714;9.414;2024-03-02T05:57:54;5.75;;;4.28;;
76656;SDS011;65576;47.714;9.414;2024-03-02T06:00:31;9.75;;;4.03;;
76656;SDS011;65576;47.714;9.414;2024-03-02T06:02:56;6.47;;;4.07;;
76656;SDS011;65576;47.714;9.414;2024-03-02T06:05:22;7.72;;;5.63;;
76656;SDS011;65576;47.714;9.414;2024-03-02T06:07:47;29.15;;;4.97;;
76656;SDS011;65576;47.714;9.414;2024-03-02T06:10:12;6.38;;;3.97;;
76656;SDS011;65576;47.714;9.414;2024-03-02T06:12:38;7.90;;;5.63;;
76656;SDS011;65576;47.714;9.414;2024-03-02T06:15:03;7.07;;;4.18;;
76656;SDS011;65576;47.714;9.414;2024-03-02T06:17:29;8.65;;;4.57;;
76656;SDS011;65576;47.714;9.414;2024-03-02T06:19:54;9.38;;;5.07;;
76656;SDS011;65576;47.714;9.414;2024-03-02T06:22:20;10.27;;;5.85;;
76656;SDS011;65576;47.714;9.414;2024-03-02T06:24:46;5.53;;;3.38;;
76656;SDS011;65576;47.714;9.414;2024-03-02T06:27:11;8.40;;;4.88;;
76656;SDS011;65576;47.714;9.414;2024-03-02T06:29:37;7.47;;;4.85;;
76656;SDS011;65576;47.714;9.414;2024-03-02T06:32:02;8.80;;;5.13;;
76656;SDS011;65576;47.714;9.414;2024-03-02T06:34:27;10.02;;;6.30;;
76656;SDS011;65576;47.714;9.414;2024-03-02T06:36:53;13.40;;;7.05;;
76656;SDS011;65576;47.714;9.414;2024-03-02T06:39:18;14.40;;;6.32;;
76656;SDS011;65576;47.714;9.414;2024-03-02T06:41:43;10.95;;;5.25;;
76656;SDS011;65576;47.714;9.414;2024-03-02T06:44:09;10.18;;;6.13;;
76656;SDS011;65576;47.714;9.414;2024-03-02T06:46:34;5.80;;;3.63;;
76656;SDS011;65576;47.714;9.414;2024-03-02T06:48:59;7.13;;;4.63;;
76656;SDS011;65576;47.714;9.414;2024-03-02T06:51:27;4.53;;;3.63;;
76656;SDS011;65576;47.714;9.414;2024-03-02T06:53:52;8.63;;;4.15;;
76656;SDS011;65576;47.714;9.414;2024-03-02T06:56:17;8.13;;;4.35;;
76656;SDS011;65576;47.714;9.414;2024-03-02T06:58:43;7.65;;;5.10;;
76656;SDS011;65576;47.714;9.414;2024-03-02T07:01:08;4.80;;;3.60;;
76656;SDS011;65576;47.714;9.414;2024-03-02T07:03:34;10.38;;;6.00;;
76656;SDS011;65576;47.714;9.414;2024-03-02T07:06:00;6.80;;;4.50;;
76656;SDS011;65576;47.714;9.414;2024-03-02T07:08:25;10.35;;;4.47;;
76656;SDS011;65576;47.714;9.414;2024-03-02T07:10:51;7.05;;;4.85;;
76656;SDS011;65576;47.714;9.414;2024-03-02T07:13:16;8.45;;;5.28;;
76656;SDS011;65576;47.714;9.414;2024-03-02T07:15:41;5.68;;;3.03;;
76656;SDS011;65576;47.714;9.414;2024-03-02T07:18:25;5.55;;;4.20;;
76656;SDS011;65576;47.714;9.414;2024-03-02T07:20:51;9.40;;;5.70;;
76656;SDS011;65576;47.714;9.414;2024-03-02T07:23:16;5.40;;;3.67;;
76656;SDS011;65576;47.714;9.414;2024-03-02T07:25:41;6.13;;;4.28;;
76656;SDS011;65576;47.714;9.414;2024-03-02T07:28:07;6.72;;;4.38;;
76656;SDS011;65576;47.714;9.414;2024-03-02T07:30:32;11.27;;;4.80;;
76656;SDS011;65576;47.714;9.414;2024-03-02T07:32:58;7.18;;;4.97;;
76656;SDS011;65576;47.714;9.414;2024-03-02T07:35:24;5.75;;;4.40;;
76656;SDS011;65576;47.714;9.414;2024-03-02T07:37:52;7.20;;;4.28;;
76656;SDS011;65576;47.714;9.414;2024-03-02T07:40:18;8.57;;;4.57;;
76656;SDS011;65576;47.714;9.414;2024-03-02T07:42:43;7.10;;;4.35;;
76656;SDS011;65576;47.714;9.414;2024-03-02T07:45:09;9.88;;;5.40;;
76656;SDS011;65576;47.714;9.414;2024-03-02T07:47:34;8.75;;;5.32;;
76656;SDS011;65576;47.714;9.414;2024-03-02T07:50:00;6.95;;;4.55;;
76656;SDS011;65576;47.714;9.414;2024-03-02T07:52:25;4.85;;;3.45;;
76656;SDS011;65576;47.714;9.414;2024-03-02T07:54:50;8.50;;;4.40;;
76656;SDS011;65576;47.714;9.414;2024-03-02T07:57:16;7.00;;;3.60;;
76656;SDS011;65576;47.714;9.414;2024-03-02T07:59:41;6.13;;;3.83;;
76656;SDS011;65576;47.714;9.414;2024-03-02T08:02:07;5.38;;;3.20;;
76656;SDS011;65576;47.714;9.414;2024-03-02T08:04:33;11.93;;;4.93;;
76656;SDS011;65576;47.714;9.414;2024-03-02T08:06:58;10.40;;;5.22;;
76656;SDS011;65576;47.714;9.414;2024-03-02T08:09:23;6.13;;;3.58;;
76656;SDS011;65576;47.714;9.414;2024-03-02T08:11:49;5.97;;;3.78;;
76656;SDS011;65576;47.714;9.414;2024-03-02T08:14:14;5.00;;;3.13;;
76656;SDS011;65576;47.714;9.414;2024-03-02T08:16:40;5.03;;;3.50;;
76656;SDS011;65576;47.714;9.414;2024-03-02T08:19:05;4.97;;;3.50;;
76656;SDS011;65576;47.714;9.414;2024-03-02T08:21:32;4.22;;;3.03;;
76656;SDS011;65576;47.714;9.414;2024-03-02T08:24:00;10.07;;;5.80;;
76656;SDS011;65576;47.714;9.414;2024-03-02T08:26:25;7.75;;;4.70;;
76656;SDS011;65576;47.714;9.414;2024-03-02T08:28:53;9.93;;;5.65;;
76656;SDS011;65576;47.714;9.414;2024-03-02T08:31:19;7.57;;;4.00;;
76656;SDS011;65576;47.714;9.414;2024-03-02T08:33:44;6.10;;;3.80;;
76656;SDS011;65576;47.714;9.414;2024-03-02T08:36:09;5.03;;;3.50;;
76656;SDS011;65576;47.714;9.414;2024-03-02T08:38:35;5.43;;;3.30;;
76656;SDS011;65576;47.714;9.414;2024-03-02T08:41:00;5.32;;;4.15;;
76656;SDS011;65576;47.714;9.414;2024-03-02T08:43:25;6.72;;;3.90;;
76656;SDS011;65576;47.714;9.414;2024-03-02T08:45:51;6.10;;;4.28;;
76656;SDS011;65576;47.714;9.414;2024-03-02T08:48:16;6.38;;;3.35;;
76656;SDS011;65576;47.714;9.414;2024-03-02T08:50:41;6.75;;;4.13;;
76656;SDS011;65576;47.714;9.414;2024-03-02T08:53:07;4.95;;;4.05;;
76656;SDS011;65576;47.714;9.414;2024-03-02T08:55:32;11.00;;;5.10;;
76656;SDS011;65576;47.714;9.414;2024-03-02T08:57:57;5.32;;;3.90;;
76656;SDS011;65576;47.714;9.414;2024-03-02T09:00:23;5.53;;;4.18;;
76656;SDS011;65576;47.714;9.414;2024-03-02T09:02:48;5.60;;;4.10;;
76656;SDS011;65576;47.714;9.414;2024-03-02T09:05:14;4.63;;;3.80;;
76656;SDS011;65576;47.714;9.414;2024-03-02T09:07:39;5.50;;;3.67;;
76656;SDS011;65576;47.714;9.414;2024-03-02T09:10:08;4.63;;;3.15;;
76656;SDS011;65576;47.714;9.414;2024-03-02T09:12:34;7.88;;;5.10;;
76656;SDS011;65576;47.714;9.414;2024-03-02T09:14:59;8.13;;;4.43;;
76656;SDS011;65576;47.714;9.414;2024-03-02T09:17:25;3.40;;;3.08;;
76656;SDS011;65576;47.714;9.414;2024-03-02T09:19:50;7.82;;;4.80;;
76656;SDS011;65576;47.714;9.414;2024-03-02T09:22:19;6.20;;;3.90;;
76656;SDS011;65576;47.714;9.414;2024-03-02T09:24:44;9.88;;;4.72;;
76656;SDS011;65576;47.714;9.414;2024-03-02T09:27:10;5.32;;;3.63;;
76656;SDS011;65576;47.714;9.414;2024-03-02T09:29:35;4.70;;;3.85;;
76656;SDS011;65576;47.714;9.414;2024-03-02T09:32:01;6.00;;;3.88;;
76656;SDS011;65576;47.714;9.414;2024-03-02T09:34:26;5.15;;;3.10;;
76656;SDS011;65576;47.714;9.414;2024-03-02T09:36:52;5.63;;;3.45;;
76656;SDS011;65576;47.714;9.414;2024-03-02T09:39:17;5.43;;;4.10;;
76656;SDS011;65576;47.714;9.414;2024-03-02T09:41:43;5.05;;;4.20;;
76656;SDS011;65576;47.714;9.414;2024-03-02T09:44:09;5.68;;;4.03;;
76656;SDS011;65576;47.714;9.414;2024-03-02T09:46:34;5.13;;;3.90;;
76656;SDS011;65576;47.714;9.414;2024-03-02T09:49:01;4.43;;;3.47;;
76656;SDS011;65576;47.714;9.414;2024-03-02T09:51:26;7.88;;;4.55;;
76656;SDS011;65576;47.714;9.414;2024-03-02T09:53:52;4.45;;;3.30;;
76656;SDS011;65576;47.714;9.414;2024-03-02T09:56:19;6.97;;;3.95;;
76656;SDS011;65576;47.714;9.414;2024-03-02T09:58:46;5.10;;;3.30;;
76656;SDS011;65576;47.714;9.414;2024-03-02T10:01:12;8.13;;;4.07;;
76656;SDS011;65576;47.714;9.414;2024-03-02T10:03:37;5.13;;;3.17;;
76656;SDS011;65576;47.714;9.414;2024-03-02T10:06:18;5.57;;;3.72;;
76656;SDS011;65576;47.714;9.414;2024-03-02T10:08:47;5.55;;;3.92;;
76656;SDS011;65576;47.714;9.414;2024-03-02T10:14:03;5.50;;;3.83;;
76656;SDS011;65576;47.714;9.414;2024-03-02T10:16:29;8.05;;;3.78;;
76656;SDS011;65576;47.714;9.414;2024-03-02T10:18:54;4.90;;;3.90;;
76656;SDS011;65576;47.714;9.414;2024-03-02T10:21:20;6.35;;;3.80;;
76656;SDS011;65576;47.714;9.414;2024-03-02T10:23:45;4.78;;;4.03;;
76656;SDS011;65576;47.714;9.414;2024-03-02T10:26:16;6.25;;;4.03;;
76656;SDS011;65576;47.714;9.414;2024-03-02T10:28:46;6.72;;;4.13;;
76656;SDS011;65576;47.714;9.414;2024-03-02T10:31:23;4.90;;;3.67;;
76656;SDS011;65576;47.714;9.414;2024-03-02T10:33:52;4.05;;;2.78;;
76656;SDS011;65576;47.714;9.414;2024-03-02T10:36:18;3.35;;;2.55;;
76656;SDS011;65576;47.714;9.414;2024-03-02T10:38:44;3.72;;;2.95;;
76656;SDS011;65576;47.714;9.414;2024-03-02T10:41:10;4.93;;;3.28;;
76656;SDS011;65576;47.714;9.414;2024-03-02T10:43:35;7.78;;;2.47;;
76656;SDS011;65576;47.714;9.414;2024-03-02T10:46:01;3.30;;;2.85;;
76656;SDS011;65576;47.714;9.414;2024-03-02T10:48:26;4.45;;;3.03;;
76656;SDS011;65576;47.714;9.414;2024-03-02T10:50:52;4.47;;;2.55;;
76656;SDS011;65576;47.714;9.414;2024-03-02T10:53:18;3.13;;;2.25;;
76656;SDS011;65576;47.714;9.414;2024-03-02T10:55:43;2.95;;;2.45;;
76656;SDS011;65576;47.714;9.414;2024-03-02T10:58:10;2.03;;;1.73;;
76656;SDS011;65576;47.714;9.414;2024-03-02T11:00:37;2.22;;;1.60;;
76656;SDS011;65576;47.714;9.414;2024-03-02T11:03:06;2.38;;;1.50;;
76656;SDS011;65576;47.714;9.414;2024-03-02T11:05:36;2.67;;;1.88;;
76656;SDS011;65576;47.714;9.414;2024-03-02T11:08:03;2.80;;;1.80;;
76656;SDS011;65576;47.714;9.414;2024-03-02T11:10:33;2.55;;;1.88;;
76656;SDS011;65576;47.714;9.414;2024-03-02T11:13:02;1.52;;;1.40;;
76656;SDS011;65576;47.714;9.414;2024-03-02T11:15:30;1.60;;;1.48;;
76656;SDS011;65576;47.714;9.414;2024-03-02T11:17:56;1.55;;;1.27;;
76656;SDS011;65576;47.714;9.414;2024-03-02T11:20:22;1.95;;;1.58;;
76656;SDS011;65576;47.714;9.414;2024-03-02T11:22:47;1.85;;;1.25;;
76656;SDS011;65576;47.714;9.414;2024-03-02T11:25:22;3.38;;;1.55;;
76656;SDS011;65576;47.714;9.414;2024-03-02T11:27:59;1.63;;;1.23;;
76656;SDS011;65576;47.714;9.414;2024-03-02T11:35:25;1.98;;;1.40;;
76656;SDS011;65576;47.714;9.414;2024-03-02T11:37:51;1.25;;;1.10;;
76656;SDS011;65576;47.714;9.414;2024-03-02T11:40:21;2.17;;;1.38;;
76656;SDS011;65576;47.714;9.414;2024-03-02T11:42:47;1.33;;;1.23;;
76656;SDS011;65576;47.714;9.414;2024-03-02T11:45:12;1.42;;;0.98;;
76656;SDS011;65576;47.714;9.414;2024-03-02T11:47:42;1.58;;;1.23;;
76656;SDS011;65576;47.714;9.414;2024-03-02T11:50:11;1.15;;;1.00;;
76656;SDS011;65576;47.714;9.414;2024-03-02T11:52:37;2.95;;;1.30;;
76656;SDS011;65576;47.714;9.414;2024-03-02T11:55:03;3.90;;;1.33;;
76656;SDS011;65576;47.714;9.414;2024-03-02T11:57:30;1.35;;;1.20;;
76656;SDS011;65576;47.714;9.414;2024-03-02T11:59:56;1.13;;;1.02;;
76656;SDS011;65576;47.714;9.414;2024-03-02T12:02:23;1.63;;;1.23;;
76656;SDS011;65576;47.714;9.414;2024-03-02T12:04:48;1.10;;;0.90;;
76656;SDS011;65576;47.714;9.414;2024-03-02T12:07:23;2.78;;;1.05;;
76656;SDS011;65576;47.714;9.414;2024-03-02T12:09:49;1.38;;;1.10;;
76656;SDS011;65576;47.714;9.414;2024-03-02T12:12:15;1.48;;;1.08;;
76656;SDS011;65576;47.714;9.414;2024-03-02T12:14:49;0.98;;;0.85;;
76656;SDS011;65576;47.714;9.414;2024-03-02T12:17:15;1.20;;;1.10;;
76656;SDS011;65576;47.714;9.414;2024-03-02T12:19:41;2.13;;;1.02;;
76656;SDS011;65576;47.714;9.414;2024-03-02T12:22:06;1.85;;;1.00;;
76656;SDS011;65576;47.714;9.414;2024-03-02T12:24:31;1.33;;;1.00;;
76656;SDS011;65576;47.714;9.414;2024-03-02T12:26:57;2.83;;;0.90;;
76656;SDS011;65576;47.714;9.414;2024-03-02T12:29:22;1.05;;;0.75;;
76656;SDS011;65576;47.714;9.414;2024-03-02T12:31:49;4.05;;;0.60;;
76656;SDS011;65576;47.714;9.414;2024-03-02T12:34:15;0.77;;;0.50;;
76656;SDS011;65576;47.714;9.414;2024-03-02T12:36:41;0.55;;;0.50;;
76656;SDS011;65576;47.714;9.414;2024-03-02T12:39:08;0.60;;;0.60;;
76656;SDS011;65576;47.714;9.414;2024-03-02T12:41:36;0.85;;;0.68;;
76656;SDS011;65576;47.714;9.414;2024-03-02T12:44:05;0.68;;;0.65;;
76656;SDS011;65576;47.714;9.414;2024-03-02T12:46:31;0.70;;;0.70;;
76656;SDS011;65576;47.714;9.414;2024-03-02T12:48:58;0.80;;;0.80;;
76656;SDS011;65576;47.714;9.414;2024-03-02T12:51:26;0.90;;;0.70;;
76656;SDS011;65576;47.714;9.414;2024-03-02T12:53:55;0.73;;;0.73;;
76656;SDS011;65576;47.714;9.414;2024-03-02T12:56:20;2.45;;;0.98;;
76656;SDS011;65576;47.714;9.414;2024-03-02T12:58:46;1.70;;;0.80;;
76656;SDS011;65576;47.714;9.414;2024-03-02T13:01:14;0.38;;;0.38;;
76656;SDS011;65576;47.714;9.414;2024-03-02T13:03:43;0.52;;;0.52;;
76656;SDS011;65576;47.714;9.414;2024-03-02T13:06:08;0.38;;;0.38;;
76656;SDS011;65576;47.714;9.414;2024-03-02T13:08:34;0.70;;;0.70;;
76656;SDS011;65576;47.714;9.414;2024-03-02T13:11:00;0.50;;;0.50;;
76656;SDS011;65576;47.714;9.414;2024-03-02T13:13:26;0.40;;;0.40;;
76656;SDS011;65576;47.714;9.414;2024-03-02T13:15:55;0.43;;;0.43;;
76656;SDS011;65576;47.714;9.414;2024-03-02T13:18:21;0.45;;;0.45;;
76656;SDS011;65576;47.714;9.414;2024-03-02T13:20:46;1.15;;;0.60;;
76656;SDS011;65576;47.714;9.414;2024-03-02T13:23:12;0.55;;;0.52;;
76656;SDS011;65576;47.714;9.414;2024-03-02T13:25:37;0.65;;;0.60;;
76656;SDS011;65576;47.714;9.414;2024-03-02T13:28:03;0.50;;;0.50;;
76656;SDS011;65576;47.714;9.414;2024-03-02T13:30:28;0.22;;;0.22;;
76656;SDS011;65576;47.714;9.414;2024-03-02T13:32:54;0.55;;;0.55;;
76656;SDS011;65576;47.714;9.414;2024-03-02T13:35:19;0.40;;;0.38;;
76656;SDS011;65576;47.714;9.414;2024-03-02T13:37:45;0.90;;;0.80;;
76656;SDS011;65576;47.714;9.414;2024-03-02T13:40:10;0.65;;;0.57;;
76656;SDS011;65576;47.714;9.414;2024-03-02T13:42:39;1.08;;;0.82;;
76656;SDS011;65576;47.714;9.414;2024-03-02T13:45:05;2.22;;;0.55;;
76656;SDS011;65576;47.714;9.414;2024-03-02T13:47:31;0.63;;;0.60;;
76656;SDS011;65576;47.714;9.414;2024-03-02T13:49:56;5.47;;;0.40;;
76656;SDS011;65576;47.714;9.414;2024-03-02T13:52:22;1.00;;;0.40;;
76656;SDS011;65576;47.714;9.414;2024-03-02T13:54:48;0.60;;;0.40;;
76656;SDS011;65576;47.714;9.414;2024-03-02T13:57:13;0.40;;;0.40;;
76656;SDS011;65576;47.714;9.414;2024-03-02T13:59:40;0.30;;;0.30;;
76656;SDS011;65576;47.714;9.414;2024-03-02T14:02:06;4.47;;;0.70;;
76656;SDS011;65576;47.714;9.414;2024-03-02T14:04:34;0.20;;;0.20;;
76656;SDS011;65576;47.714;9.414;2024-03-02T14:07:00;0.93;;;0.50;;
76656;SDS011;65576;47.714;9.414;2024-03-02T14:09:26;0.45;;;0.45;;
76656;SDS011;65576;47.714;9.414;2024-03-02T14:11:52;0.40;;;0.40;;
76656;SDS011;65576;47.714;9.414;2024-03-02T14:14:17;0.50;;;0.28;;
76656;SDS011;65576;47.714;9.414;2024-03-02T14:16:43;0.52;;;0.50;;
76656;SDS011;65576;47.714;9.414;2024-03-02T14:19:09;3.00;;;0.80;;
76656;SDS011;65576;47.714;9.414;2024-03-02T14:21:34;0.47;;;0.47;;
76656;SDS011;65576;47.714;9.414;2024-03-02T14:24:01;1.08;;;0.98;;
76656;SDS011;65576;47.714;9.414;2024-03-02T14:26:26;0.60;;;0.50;;
76656;SDS011;65576;47.714;9.414;2024-03-02T14:28:53;0.82;;;0.70;;
76656;SDS011;65576;47.714;9.414;2024-03-02T14:31:18;0.32;;;0.32;;
76656;SDS011;65576;47.714;9.414;2024-03-02T14:33:44;0.68;;;0.60;;
76656;SDS011;65576;47.714;9.414;2024-03-02T14:36:10;1.00;;;0.70;;
76656;SDS011;65576;47.714;9.414;2024-03-02T14:38:36;1.38;;;0.98;;
76656;SDS011;65576;47.714;9.414;2024-03-02T14:41:02;3.28;;;0.47;;
76656;SDS011;65576;47.714;9.414;2024-03-02T14:43:28;0.73;;;0.73;;
76656;SDS011;65576;47.714;9.414;2024-03-02T14:45:53;1.02;;;0.82;;
76656;SDS011;65576;47.714;9.414;2024-03-02T14:48:19;0.50;;;0.50;;
76656;SDS011;65576;47.714;9.414;2024-03-02T14:50:44;0.63;;;0.60;;
76656;SDS011;65576;47.714;9.414;2024-03-02T14:53:09;2.00;;;0.90;;